Latest Coastal Weather Observations for Bedout Island

IDW60701

Issued at 8:15 am WST Wednesday 3 September 2014 (issued every 10 minutes, with the page automatically refreshed every 10 minutes)

About coastal observations | Map of coastal stations | Coastal observations for WA | Marine services | Other Formats
Station Details ID: 004100 Name: BEDOUT ISLAND Lat: -19.59 Lon: 119.10 Height: 8.6 m
Data from the previous 72 hours. | See also: Recent months for locations in Western Australia
Date/Time
WST
Temp

°C
Wind Pressure Rain
since 9am
mm
Weather Cloud Vis
km
Sea
Height
m
Swell
Dir
 
Speed
knots
Gust
knots
hPa Trend Height
m
Period
s
Dir
03/08:00am 23.9 SSW 6 7 1016.5 - - - - - - - - -
03/07:30am 23.0 SW 8 9 1016.0 - - - - - - - - -
03/07:00am 21.6 SW 7 8 1015.9 - - - - - - - - -
03/06:30am 20.7 SW 7 8 1015.9 - - - - - - - - -
03/06:00am 20.7 SW 7 8 1015.6 - - - - - - - - -
03/05:30am 21.1 SW 9 10 1015.6 - - - - - - - - -
03/05:00am 21.3 SW 9 10 1015.4 - - - - - - - - -
03/04:30am 21.2 SW 10 11 1015.2 - - - - - - - - -
03/04:00am 21.7 SW 10 12 1015.0 - - - - - - - - -
03/03:30am 21.8 SW 12 14 1014.9 - - - - - - - - -
03/03:00am 21.7 SW 12 14 1014.7 - - - - - - - - -
03/02:30am 22.1 SW 13 16 1014.8 - - - - - - - - -
03/02:00am 22.1 SW 13 15 1014.9 - - - - - - - - -
03/01:30am 22.0 WSW 12 13 1014.9 - - - - - - - - -
03/01:00am 21.9 WSW 13 14 1015.1 - - - - - - - - -
03/12:30am 21.9 WSW 12 14 1015.3 - - - - - - - - -
03/12:00am 21.7 WSW 12 14 1015.3 - - - - - - - - -
 
Date/Time
WST
Temp

°C
Wind Pressure Rain
since 9am
mm
Weather Cloud Vis
km
Sea
Height
m
Swell
Dir
 
Speed
knots
Gust
knots
hPa Trend Height
m
Period
s
Dir
02/11:30pm 21.7 WSW 11 12 1015.5 - - - - - - - - -
02/11:00pm 21.8 W 11 11 1015.5 - - - - - - - - -
02/10:30pm 21.9 W 10 11 1015.7 - - - - - - - - -
02/10:00pm 22.0 W 11 12 1015.9 - - - - - - - - -
02/09:30pm 22.0 W 11 12 1015.9 - - - - - - - - -
02/09:00pm 22.3 W 12 14 1015.7 - - - - - - - - -
02/08:30pm 22.3 W 13 14 1015.7 - - - - - - - - -
02/08:00pm 22.4 WNW 12 14 1015.3 - - - - - - - - -
02/07:30pm 22.5 WNW 10 11 1015.1 - - - - - - - - -
02/07:00pm 22.5 W 8 8 1015.0 - - - - - - - - -
02/06:30pm 22.6 W 7 8 1014.9 - - - - - - - - -
02/06:00pm 23.6 W 7 7 1014.6 - - - - - - - - -
02/05:30pm 25.2 WSW 6 7 1014.5 - - - - - - - - -
02/05:00pm 26.0 W 7 7 1014.3 - - - - - - - - -
02/04:30pm 26.7 W 6 7 1014.1 - - - - - - - - -
02/04:00pm 27.8 WSW 5 6 1013.9 - - - - - - - - -
02/03:30pm 27.2 WSW 5 6 1013.8 - - - - - - - - -
02/03:00pm 28.0 SW 5 5 1013.7 - - - - - - - - -
02/02:30pm 28.3 SW 4 5 1014.1 - - - - - - - - -
02/02:00pm 28.3 SW 5 6 1014.2 - - - - - - - - -
02/01:30pm 28.0 WSW 5 6 1014.8 - - - - - - - - -
02/01:00pm 28.6 WSW 4 6 1015.3 - - - - - - - - -
02/12:30pm 29.5 E 3 4 1015.5 - - - - - - - - -
02/12:00pm 27.7 W 4 6 1015.8 - - - - - - - - -
02/11:30am 27.8 E 3 5 1016.3 - - - - - - - - -
02/11:00am 26.6 ENE 4 5 1016.9 - - - - - - - - -
02/10:30am 27.0 ENE 5 6 1017.2 - - - - - - - - -
02/10:00am 26.5 E 5 6 1017.5 - - - - - - - - -
02/09:30am 26.5 ESE 4 5 1017.5 - - - - - - - - -
02/09:00am 24.9 SSE 3 5 1017.2 - - - - - - - - -
02/08:30am 23.8 SSE 3 4 1017.1 - - - - - - - - -
02/08:00am 22.2 SSE 2 4 1016.8 - - - - - - - - -
02/07:30am 21.4 SSE 1 3 1016.4 - - - - - - - - -
02/07:00am 20.1 SSE 5 6 1015.9 - - - - - - - - -
02/06:30am 19.1 SSE 7 9 1015.7 - - - - - - - - -
02/06:00am 19.3 S 7 8 1015.2 - - - - - - - - -
02/05:30am 19.3 S 7 8 1015.0 - - - - - - - - -
02/05:00am 19.7 S 9 11 1014.7 - - - - - - - - -
02/04:30am 19.9 S 9 11 1014.7 - - - - - - - - -
02/04:00am 19.8 S 11 13 1014.5 - - - - - - - - -
02/03:30am 19.9 S 11 13 1014.5 - - - - - - - - -
02/03:00am 20.4 SSE 10 13 1014.4 - - - - - - - - -
02/02:30am 20.9 S 10 11 1014.4 - - - - - - - - -
02/02:00am 21.2 S 8 10 1014.4 - - - - - - - - -
02/01:30am 21.4 SSW 8 9 1014.4 - - - - - - - - -
02/01:00am 21.5 WSW 7 7 1014.5 - - - - - - - - -
02/12:30am 21.7 W 7 7 1014.6 - - - - - - - - -
02/12:00am 21.7 W 7 8 1014.7 - - - - - - - - -
 
Date/Time
WST
Temp

°C
Wind Pressure Rain
since 9am
mm
Weather Cloud Vis
km
Sea
Height
m
Swell
Dir
 
Speed
knots
Gust
knots
hPa Trend Height
m
Period
s
Dir
01/11:30pm 21.7 WNW 8 8 1014.9 - - - - - - - - -
01/11:00pm 21.9 W 9 10 1015.0 - - - - - - - - -
01/10:30pm 21.7 W 9 10 1015.2 - - - - - - - - -
01/10:00pm 21.6 WNW 10 10 1015.3 - - - - - - - - -
01/09:30pm 21.5 WNW 9 11 1015.3 - - - - - - - - -
01/09:00pm 21.6 NW 10 11 1015.2 - - - - - - - - -
01/08:30pm 21.9 NW 11 11 1015.1 - - - - - - - - -
01/08:00pm 22.3 NW 10 11 1014.9 - - - - - - - - -
01/07:30pm 22.8 NNW 11 13 1014.6 - - - - - - - - -
01/07:00pm 23.3 N 15 17 1013.6 - - - - - - - - -
01/06:30pm 23.3 NW 11 11 1014.0 - - - - - - - - -
01/06:00pm 23.4 NNW 6 9 1014.0 - - - - - - - - -
01/05:30pm 25.5 ENE 3 4 1013.8 - - - - - - - - -
01/05:00pm 27.1 ENE 3 4 1013.6 - - - - - - - - -
01/04:30pm 27.5 ENE 2 3 1013.6 - - - - - - - - -
01/04:00pm 27.8 ESE 3 4 1013.5 - - - - - - - - -
01/03:30pm 28.6 ENE 3 4 1013.4 - - - - - - - - -
01/03:00pm 28.6 E 4 5 1013.6 - - - - - - - - -
01/02:30pm 29.0 E 2 4 1013.9 - - - - - - - - -
01/02:00pm 29.3 E 4 4 1014.1 - - - - - - - - -
01/01:30pm 28.3 E 4 5 1014.4 - - - - - - - - -
01/01:00pm 28.5 NE 4 5 1014.7 - - - - - - - - -
01/12:30pm 28.1 ENE 4 5 1015.0 - - - - - - - - -
01/12:00pm 27.9 NE 4 5 1015.4 - - - - - - - - -
01/11:30am 28.2 NNE 4 5 1015.8 - - - - - - - - -
01/11:00am 27.6 ENE 3 5 1016.1 - - - - - - - - -
01/10:30am 27.8 ENE 2 5 1016.3 - - - - - - - - -
01/10:00am 26.4 E 3 5 1016.5 - - - - - - - - -
01/09:30am 26.1 SE 4 5 1016.4 - - - - - - - - -
01/09:00am 25.6 E 4 5 1016.3 - - - - - - - - -
01/08:30am 24.6 E 3 4 1016.1 - - - - - - - - -
01/08:00am 23.6 E 4 5 1015.8 - - - - - - - - -
01/07:30am 22.9 S 3 4 1015.7 - - - - - - - - -
01/07:00am 22.3 CALM 0 0 1015.4 - - - - - - - - -
01/06:30am 20.8 CALM 0 0 1015.0 - - - - - - - - -
01/06:00am 20.0 S 1 4 1014.6 - - - - - - - - -
01/05:30am 19.0 SE 5 8 1014.2 - - - - - - - - -
01/05:00am 19.6 E 4 6 1014.0 - - - - - - - - -
01/04:30am 19.6 SE 7 9 1013.6 - - - - - - - - -
01/04:00am 20.2 SSE 8 10 1013.3 - - - - - - - - -
01/03:30am 20.1 SSE 8 9 1013.1 - - - - - - - - -
01/03:00am 20.5 S 8 10 1013.1 - - - - - - - - -
01/02:30am 20.7 S 10 11 1013.3 - - - - - - - - -
01/02:00am 21.2 S 10 11 1013.5 - - - - - - - - -
01/01:30am 20.9 SSW 9 10 1013.7 - - - - - - - - -
01/01:00am 20.9 SSW 10 11 1013.7 - - - - - - - - -
01/12:30am 21.1 SSW 10 12 1014.1 - - - - - - - - -
01/12:00am 21.5 SW 10 11 1014.1 - - - - - - - - -
 
Date/Time
WST
Temp

°C
Wind Pressure Rain
since 9am
mm
Weather Cloud Vis
km
Sea
Height
m
Swell
Dir
 
Speed
knots
Gust
knots
hPa Trend Height
m
Period
s
Dir
31/11:30pm 21.1 SW 10 12 1014.2 - - - - - - - - -
31/11:00pm 21.3 WSW 10 11 1014.2 - - - - - - - - -
31/10:30pm 21.1 WSW 9 10 1014.1 - - - - - - - - -
31/10:00pm 21.0 WSW 8 9 1014.1 - - - - - - - - -
31/09:30pm 20.8 WSW 9 9 1014.4 - - - - - - - - -
31/09:00pm 21.3 WSW 8 9 1014.2 - - - - - - - - -
31/08:30pm 21.8 WSW 8 8 1014.2 - - - - - - - - -
31/08:00pm 22.6 W 6 7 1013.8 - - - - - - - - -
31/07:30pm 22.5 NNW 8 8 1013.4 - - - - - - - - -
31/07:00pm 22.8 N 7 8 1013.2 - - - - - - - - -
31/06:30pm 22.9 N 7 7 1013.2 - - - - - - - - -
31/06:00pm 23.3 N 7 8 1013.0 - - - - - - - - -
31/05:30pm 25.1 N 6 7 1013.0 - - - - - - - - -
31/05:00pm 26.9 N 5 5 1013.0 - - - - - - - - -
31/04:30pm 27.6 NW 2 4 1013.2 - - - - - - - - -
31/04:00pm 27.8 W 3 4 1013.2 - - - - - - - - -
31/03:30pm 27.4 W 1 4 1013.2 - - - - - - - - -
31/03:00pm 28.4 NE 2 5 1013.3 - - - - - - - - -
31/02:30pm 28.6 NE 4 5 1013.5 - - - - - - - - -
31/02:00pm 28.3 NNE 4 5 1013.6 - - - - - - - - -
31/01:30pm 27.9 NNE 5 6 1014.0 - - - - - - - - -
31/01:00pm 27.7 NE 5 5 1014.3 - - - - - - - - -
31/12:30pm 27.6 ENE 5 6 1014.6 - - - - - - - - -
31/12:00pm 26.8 ENE 5 6 1014.9 - - - - - - - - -
31/11:30am 26.7 E 4 5 1015.3 - - - - - - - - -
31/11:00am 27.2 ENE 3 5 1015.8 - - - - - - - - -
31/10:30am 27.0 ESE 4 5 1016.1 - - - - - - - - -
31/10:00am 26.2 E 4 5 1016.4 - - - - - - - - -
31/09:30am 25.4 SSE 6 7 1016.4 - - - - - - - - -
31/09:00am 24.6 SSE 6 8 1016.3 - - - - - - - - -
31/08:30am 24.0 SSE 8 9 1016.3 - - - - - - - - -

Other Formats:

Comma delimited format used in spreadsheet applications
http://www.bom.gov.au/fwo/IDW60701/IDW60701.94310.axf

JavaScript Object Notation format (JSON) in row-major order
http://www.bom.gov.au/fwo/IDW60701/IDW60701.94310.json